createdAt,value
2018-12-01T00:04:01.335Z,62.66
2018-12-01T00:08:20.259Z,63.17
2018-12-01T00:12:24.214Z,62.74
2018-12-01T00:16:28.190Z,63.53
2018-12-01T00:20:35.097Z,62.97
2018-12-01T00:24:39.090Z,62.84
2018-12-01T00:28:43.137Z,63.25
2018-12-01T00:32:48.395Z,62.79
2018-12-01T00:36:52.840Z,63.24
2018-12-01T00:40:56.845Z,62.70
2018-12-01T00:45:00.846Z,63.16
2018-12-01T00:49:04.848Z,62.96
2018-12-01T00:53:08.941Z,62.78
2018-12-01T00:57:12.887Z,62.98
2018-12-01T01:01:16.872Z,63.29
2018-12-01T01:05:21.946Z,62.93
2018-12-01T01:09:25.987Z,63.42
2018-12-01T01:13:30.062Z,63.31
2018-12-01T01:17:34.039Z,63.29
2018-12-01T01:21:38.173Z,63.63
2018-12-01T01:25:42.206Z,63.53
2018-12-01T01:29:46.231Z,63.51
2018-12-01T01:33:50.166Z,63.41
2018-12-01T01:37:54.157Z,63.51
2018-12-01T01:41:58.251Z,63.49
2018-12-01T01:46:02.232Z,63.36
2018-12-01T01:50:08.452Z,63.09
2018-12-01T01:54:12.479Z,63.55
2018-12-01T01:58:16.542Z,63.38
2018-12-01T02:02:20.491Z,63.27
2018-12-01T02:06:24.489Z,63.05
2018-12-01T02:10:28.455Z,63.19
2018-12-01T02:14:32.535Z,62.92
2018-12-01T02:18:36.523Z,62.58
2018-12-01T02:22:40.571Z,63.10
2018-12-01T02:26:44.579Z,62.46
2018-12-01T02:30:48.526Z,62.64
2018-12-01T02:34:52.618Z,62.66
2018-12-01T02:38:56.645Z,61.99
2018-12-01T02:43:00.683Z,62.28
2018-12-01T02:47:09.778Z,61.97
2018-12-01T02:51:13.827Z,62.04
2018-12-01T02:55:17.762Z,62.30
2018-12-01T02:59:21.737Z,62.08
2018-12-01T03:03:25.679Z,61.72
2018-12-01T03:07:29.702Z,61.65
2018-12-01T03:11:33.760Z,62.12
2018-12-01T03:15:37.743Z,61.91
2018-12-01T03:19:41.773Z,61.94
2018-12-01T03:23:45.804Z,62.03
2018-12-01T03:27:50.525Z,61.95
2018-12-01T03:31:54.467Z,61.95
2018-12-01T03:35:58.402Z,62.14
2018-12-01T03:40:02.438Z,61.94
2018-12-01T03:44:06.494Z,61.89
2018-12-01T03:48:10.456Z,62.42
2018-12-01T03:52:14.420Z,62.19
2018-12-01T03:56:18.353Z,62.17
2018-12-01T04:00:30.154Z,61.90
2018-12-01T04:04:34.145Z,61.92
2018-12-01T04:08:38.146Z,62.32
2018-12-01T04:12:42.096Z,62.40
2018-12-01T04:16:46.111Z,62.79
2018-12-01T04:20:50.148Z,63.11
2018-12-01T04:24:54.150Z,63.37
2018-12-01T04:28:58.103Z,63.44
2018-12-01T04:33:02.117Z,63.59
2018-12-01T04:37:06.121Z,63.32
2018-12-01T04:41:10.138Z,63.63
2018-12-01T04:45:14.193Z,63.40
2018-12-01T04:49:18.180Z,63.90
2018-12-01T04:53:22.163Z,63.87
2018-12-01T04:57:26.161Z,64.30
2018-12-01T05:01:31.094Z,64.34
2018-12-01T05:05:35.038Z,64.75
2018-12-01T05:09:39.088Z,64.62
2018-12-01T05:13:43.042Z,64.48
2018-12-01T05:17:47.498Z,64.09
2018-12-01T05:21:51.441Z,64.26
2018-12-01T05:25:56.423Z,64.10
2018-12-01T05:30:00.441Z,64.25
2018-12-01T05:34:04.455Z,63.94
2018-12-01T05:38:08.400Z,64.07
2018-12-01T05:42:12.406Z,64.30
2018-12-01T05:46:16.362Z,64.25
2018-12-01T05:50:23.015Z,63.99
2018-12-01T05:54:26.973Z,64.20
2018-12-01T05:58:30.945Z,64.18
2018-12-01T06:02:34.967Z,64.01
2018-12-01T06:06:38.925Z,64.18
2018-12-01T06:10:42.902Z,64.87
2018-12-01T06:14:46.927Z,64.69
2018-12-01T06:18:51.980Z,64.88
2018-12-01T06:22:56.006Z,64.73
2018-12-01T06:27:00.040Z,65.07
2018-12-01T06:31:04.025Z,64.49
2018-12-01T06:35:08.082Z,64.77
2018-12-01T06:39:12.210Z,64.59
2018-12-01T06:43:16.181Z,64.61
2018-12-01T06:47:20.131Z,64.35
2018-12-01T06:51:24.171Z,64.78
2018-12-01T06:55:28.121Z,64.49
2018-12-01T06:59:32.113Z,64.79
2018-12-01T07:03:36.115Z,64.20
2018-12-01T07:07:40.084Z,64.35
2018-12-01T07:11:44.048Z,63.85
2018-12-01T07:15:48.184Z,64.01
2018-12-01T07:19:52.203Z,63.97
2018-12-01T07:23:56.258Z,64.13
2018-12-01T07:28:00.247Z,63.87
2018-12-01T07:32:04.367Z,64.33
2018-12-01T07:36:08.295Z,64.61
2018-12-01T07:40:14.015Z,64.30
2018-12-01T07:44:18.078Z,63.78
2018-12-01T07:48:22.079Z,63.97
2018-12-01T07:52:26.071Z,63.76
2018-12-01T07:56:30.012Z,64.07
2018-12-01T08:00:36.087Z,64.09
2018-12-01T08:04:40.164Z,63.27
2018-12-01T08:08:44.107Z,63.82
2018-12-01T08:12:48.095Z,63.28
2018-12-01T08:16:52.176Z,62.72
2018-12-01T08:20:56.139Z,62.81
2018-12-01T08:25:00.447Z,62.03
2018-12-01T08:29:04.628Z,61.57
2018-12-01T08:33:08.616Z,61.67
2018-12-01T08:37:14.042Z,61.17
2018-12-01T08:41:18.056Z,60.70
2018-12-01T08:45:22.376Z,60.21
2018-12-01T08:49:26.353Z,59.66
2018-12-01T08:53:32.481Z,59.72
2018-12-01T08:57:36.530Z,59.43
2018-12-01T09:01:40.581Z,59.98
2018-12-01T09:05:44.768Z,60.15
2018-12-01T09:09:48.856Z,59.19
2018-12-01T09:13:53.468Z,59.37
2018-12-01T09:17:57.579Z,58.29
2018-12-01T09:22:01.630Z,58.14
2018-12-01T09:26:20.008Z,57.63
2018-12-01T09:50:26.167Z,55.20
2018-12-01T09:54:31.917Z,55.20
2018-12-01T09:58:37.161Z,54.49
2018-12-01T10:02:41.570Z,56.36
2018-12-01T10:06:45.607Z,56.29
2018-12-01T10:11:04.228Z,56.62
2018-12-01T10:15:11.112Z,56.14
2018-12-01T10:19:15.106Z,56.45
2018-12-01T10:23:19.202Z,56.30
2018-12-01T10:27:23.159Z,55.92
2018-12-01T10:31:27.577Z,55.62
2018-12-01T10:35:31.306Z,54.69
2018-12-01T10:39:35.198Z,54.99
2018-12-01T10:43:39.348Z,54.96
2018-12-01T10:47:43.924Z,54.85
2018-12-01T10:51:48.097Z,54.97
2018-12-01T10:55:52.279Z,54.23
2018-12-01T10:59:56.862Z,54.50
2018-12-01T11:04:06.102Z,53.63
2018-12-01T11:08:11.346Z,52.97
2018-12-01T11:12:15.463Z,52.96
2018-12-01T11:16:19.551Z,53.40
2018-12-01T11:20:23.497Z,52.39
2018-12-01T11:24:28.062Z,52.02
2018-12-01T11:28:32.203Z,50.50
2018-12-01T11:32:36.236Z,50.16
2018-12-01T11:36:40.379Z,50.19
2018-12-01T11:40:45.477Z,50.70
2018-12-01T11:44:49.554Z,51.33
2018-12-01T11:48:53.659Z,51.22
2018-12-01T11:52:57.731Z,51.58
2018-12-01T11:57:02.336Z,51.80
2018-12-01T12:01:06.519Z,51.15
2018-12-01T12:05:11.659Z,50.85
2018-12-01T12:09:15.764Z,51.54
2018-12-01T12:13:22.286Z,51.10
2018-12-01T12:17:26.383Z,51.04
2018-12-01T12:21:30.482Z,50.78
2018-12-01T12:25:34.468Z,50.31
2018-12-01T12:29:38.561Z,50.10
2018-12-01T12:33:43.146Z,50.32
2018-12-01T12:37:47.359Z,50.73
2018-12-01T12:41:51.424Z,50.62
2018-12-01T12:45:55.427Z,50.95
2018-12-01T12:49:59.470Z,50.79
2018-12-01T12:54:03.697Z,51.25
2018-12-01T12:58:07.678Z,51.60
2018-12-01T13:02:11.843Z,51.80
2018-12-01T13:06:15.915Z,51.17
2018-12-01T13:10:21.003Z,52.16
2018-12-01T13:14:25.191Z,51.81
2018-12-01T13:18:29.193Z,51.93
2018-12-01T13:22:33.200Z,52.05
2018-12-01T13:26:37.221Z,51.77
2018-12-01T13:30:57.179Z,52.59
2018-12-01T13:35:01.191Z,52.71
2018-12-01T13:39:08.299Z,52.34
2018-12-01T13:43:12.275Z,52.43
2018-12-01T13:47:16.344Z,52.64
2018-12-01T13:51:26.602Z,53.02
2018-12-01T13:55:32.042Z,52.58
2018-12-01T13:59:36.114Z,52.93
2018-12-01T14:03:40.081Z,52.88
2018-12-01T14:07:44.113Z,53.31
2018-12-01T14:11:48.089Z,54.54
2018-12-01T14:15:52.029Z,55.09
2018-12-01T14:19:55.953Z,55.42
2018-12-01T14:23:59.886Z,56.40
2018-12-01T14:28:05.631Z,56.85
2018-12-01T14:32:09.688Z,57.61
2018-12-01T14:36:13.709Z,58.40
2018-12-01T14:40:17.824Z,59.76
2018-12-01T14:44:21.763Z,59.85
2018-12-01T14:48:25.841Z,60.63
2018-12-01T14:52:29.835Z,60.72
2018-12-01T14:56:33.815Z,60.75
2018-12-01T15:00:38.087Z,62.39
2018-12-01T15:04:42.059Z,62.53
2018-12-01T15:08:46.259Z,62.60
2018-12-01T15:12:50.424Z,62.60
2018-12-01T15:16:54.812Z,63.13
2018-12-01T15:21:01.074Z,62.63
2018-12-01T15:25:08.030Z,63.19
2018-12-01T15:29:12.068Z,63.06
2018-12-01T15:33:16.680Z,62.88
2018-12-01T15:37:21.108Z,62.77
2018-12-01T15:41:25.387Z,63.45
2018-12-01T15:45:29.373Z,62.57
2018-12-01T15:49:33.392Z,63.10
2018-12-01T15:53:37.407Z,63.70
2018-12-01T15:57:41.339Z,63.00
2018-12-01T16:01:45.318Z,63.81
2018-12-01T16:05:49.315Z,62.88
2018-12-01T16:09:53.311Z,62.74
2018-12-01T16:13:57.241Z,62.41
2018-12-01T16:18:01.246Z,62.56
2018-12-01T16:22:05.560Z,62.14
2018-12-01T16:26:09.494Z,61.22
2018-12-01T16:30:24.452Z,62.18
2018-12-01T16:34:29.861Z,61.01
2018-12-01T16:38:35.966Z,61.15
2018-12-01T16:42:40.648Z,61.92
2018-12-01T16:46:44.740Z,61.78
2018-12-01T16:50:48.782Z,62.65
2018-12-01T16:54:52.775Z,62.41
2018-12-01T16:58:56.784Z,62.70
2018-12-01T17:03:00.758Z,62.65
2018-12-01T17:07:04.830Z,63.10
2018-12-01T17:11:09.462Z,61.91
2018-12-01T17:15:16.507Z,62.38
2018-12-01T17:19:20.484Z,61.38
2018-12-01T17:23:24.538Z,61.37
2018-12-01T17:27:28.550Z,61.15
2018-12-01T17:31:32.571Z,60.91
2018-12-01T17:35:36.734Z,60.44
2018-12-01T17:39:40.676Z,60.04
2018-12-01T17:43:48.558Z,60.27
2018-12-01T17:47:52.503Z,60.04
2018-12-01T17:51:56.564Z,60.50
2018-12-01T17:56:00.535Z,59.84
2018-12-01T18:00:09.134Z,60.04
2018-12-01T18:04:13.121Z,59.34
2018-12-01T18:08:20.571Z,60.01
2018-12-01T18:12:24.501Z,60.00
2018-12-01T18:16:28.549Z,58.86
2018-12-01T18:20:32.478Z,58.44
2018-12-01T18:24:36.514Z,57.78
2018-12-01T18:28:43.860Z,57.72
2018-12-01T18:32:48.476Z,57.64
2018-12-01T18:36:52.607Z,56.93
2018-12-01T18:40:56.731Z,57.10
2018-12-01T18:45:01.632Z,56.92
2018-12-01T18:49:05.075Z,56.68
2018-12-01T18:53:10.820Z,57.08
2018-12-01T18:57:15.317Z,57.28
2018-12-01T19:01:19.363Z,56.41
2018-12-01T19:05:23.619Z,57.16
2018-12-01T19:09:27.662Z,56.75
2018-12-01T19:13:31.976Z,56.94
2018-12-01T19:17:36.355Z,56.65
2018-12-01T19:21:40.588Z,56.47
2018-12-01T19:25:46.104Z,56.47
2018-12-01T19:29:50.212Z,56.05
2018-12-01T19:33:54.151Z,56.13
2018-12-01T19:37:58.134Z,56.23
2018-12-01T19:42:02.183Z,56.16
2018-12-01T19:46:06.512Z,55.93
2018-12-01T19:50:20.728Z,56.05
2018-12-01T19:54:24.705Z,55.66
2018-12-01T19:58:29.833Z,54.81
2018-12-01T20:02:34.098Z,54.89
2018-12-01T20:06:38.123Z,55.64
2018-12-01T20:10:45.116Z,55.89
2018-12-01T20:14:49.176Z,55.46
2018-12-01T20:18:54.218Z,55.48
2018-12-01T20:22:58.246Z,55.48
2018-12-01T20:27:02.334Z,55.24
2018-12-01T20:31:06.594Z,55.81
2018-12-01T20:35:12.067Z,55.83
2018-12-01T20:39:22.019Z,55.77
2018-12-01T20:43:26.028Z,55.43
2018-12-01T20:47:30.123Z,55.22
2018-12-01T20:51:34.090Z,55.50
2018-12-01T20:55:38.762Z,55.46
2018-12-01T20:59:42.869Z,55.55
2018-12-01T21:03:46.923Z,55.62
2018-12-01T21:07:51.175Z,55.55
2018-12-01T21:11:55.528Z,55.31
2018-12-01T21:15:59.710Z,55.84
2018-12-01T21:20:05.322Z,55.25
2018-12-01T21:24:09.654Z,55.71
2018-12-01T21:28:14.344Z,55.72
2018-12-01T21:32:18.355Z,55.57
2018-12-01T21:36:22.405Z,55.60
2018-12-01T21:40:26.458Z,55.64
2018-12-01T21:44:30.575Z,55.81
2018-12-01T21:48:34.571Z,55.55
2018-12-01T21:52:38.519Z,55.51
2018-12-01T21:56:42.635Z,55.73
2018-12-01T22:00:50.144Z,55.25
2018-12-01T22:04:54.122Z,56.15
2018-12-01T22:08:58.162Z,56.28
2018-12-01T22:13:02.091Z,55.64
2018-12-01T22:17:07.237Z,55.74
2018-12-01T22:21:11.328Z,56.12
2018-12-01T22:25:15.394Z,55.82
2018-12-01T22:29:19.392Z,55.92
2018-12-01T22:33:25.918Z,55.96
2018-12-01T22:37:29.866Z,56.06
2018-12-01T22:41:33.917Z,55.75
2018-12-01T22:45:37.942Z,55.74
2018-12-01T22:49:41.983Z,55.90
2018-12-01T22:53:45.950Z,56.06
2018-12-01T22:57:52.300Z,56.09
2018-12-01T23:01:56.266Z,55.51
2018-12-01T23:06:00.366Z,55.97
2018-12-01T23:10:06.276Z,55.27
2018-12-01T23:14:10.427Z,55.61
2018-12-01T23:18:18.071Z,55.98
2018-12-01T23:22:22.112Z,55.68
2018-12-01T23:26:26.116Z,55.63
2018-12-01T23:30:30.731Z,55.74
2018-12-01T23:34:34.807Z,56.01
2018-12-01T23:38:38.907Z,56.28
2018-12-01T23:42:43.008Z,56.38
2018-12-01T23:46:48.579Z,56.25
2018-12-01T23:50:54.029Z,56.11
2018-12-01T23:54:58.059Z,56.08
2018-12-01T23:59:02.093Z,56.47
